Time;durP1;ratioP1;P1;durP2;ratioP2;P2;SDS_P1;SDS_P2;PMS_P1;PMS_P2;Temp;Humidity;BMP_temperature;BMP_pressure;BME280_temperature;BME280_humidity;BME280_pressure;Samples;Min_cycle;Max_cycle;Signal;HPM_P1;HPM_P2
2022/10/28 00:01:15;;;;;;;15.65;8.55;;;;;;;7.44;85.92;99008.16;1656264;85;21061;-71
2022/10/28 00:03:55;;;;;;;11.88;7.72;;;;;;;7.39;86.15;99008.56;1656214;85;21582;-71
2022/10/28 00:06:28;;;;;;;14.00;7.97;;;;;;;7.37;86.39;99009.02;1651492;85;21050;-72
2022/10/28 00:08:55;;;;;;;13.78;7.85;;;;;;;7.35;86.19;99011.65;1656322;86;21011;-68
2022/10/28 00:11:28;;;;;;;14.78;8.28;;;;;;;7.31;86.91;99003.75;1651089;85;21141;-66
2022/10/28 00:13:58;;;;;;;14.43;7.08;;;;;;;7.26;87.57;99000.67;1654697;85;21112;-68
2022/10/28 00:16:29;;;;;;;14.83;8.18;;;;;;;7.21;87.38;99003.75;1661688;85;20987;-68
2022/10/28 00:18:58;;;;;;;14.68;8.10;;;;;;;7.18;87.12;99005.05;1667780;85;21056;-68
2022/10/28 00:21:29;;;;;;;10.78;7.17;;;;;;;7.15;86.94;99003.75;1674326;85;20998;-68
2022/10/28 00:23:56;;;;;;;13.18;7.70;;;;;;;7.15;86.82;98999.80;1665341;85;21029;-68
2022/10/28 00:26:27;;;;;;;16.77;8.60;;;;;;;7.15;87.11;99002.86;1671745;85;21335;-68
2022/10/28 00:29:06;;;;;;;12.50;7.90;;;;;;;7.10;87.29;98998.45;1666410;84;21089;-67
2022/10/28 00:31:36;;;;;;;13.75;7.83;;;;;;;7.08;87.94;99004.61;1675092;85;21480;-68
2022/10/28 00:34:08;;;;;;;16.45;8.30;;;;;;;7.06;88.08;98994.52;1666864;85;21439;-68
2022/10/28 00:36:38;;;;;;;17.25;8.63;;;;;;;7.04;89.28;98989.66;1670913;85;20990;-68
2022/10/28 00:39:15;;;;;;;16.12;8.98;;;;;;;7.04;88.91;98997.57;1673751;85;21036;-68
2022/10/28 00:41:47;;;;;;;14.50;8.60;;;;;;;7.04;88.61;99000.20;1670623;85;21029;-67
2022/10/28 00:44:56;;;;;;;13.83;8.60;;;;;;;7.03;89.46;98995.39;1664588;85;21521;-68
2022/10/28 00:47:55;;;;;;;12.80;7.53;;;;;;;6.99;89.24;98994.48;1668491;85;21003;-70
2022/10/28 00:50:43;;;;;;;16.17;8.13;;;;;;;6.96;87.90;98982.64;1667795;85;21045;-81
2022/10/28 00:53:18;;;;;;;14.95;8.18;;;;;;;6.89;87.56;98986.59;1581949;88;21105;-80
2022/10/28 00:55:50;;;;;;;14.23;8.18;;;;;;;6.86;87.78;98981.73;1652187;85;21370;-81
2022/10/28 00:58:20;;;;;;;14.23;8.43;;;;;;;6.84;87.67;98981.30;1666969;85;21126;-82
2022/10/28 01:00:47;;;;;;;13.40;7.92;;;;;;;6.83;88.35;98979.54;1670628;85;21439;-81
2022/10/28 01:03:17;;;;;;;14.03;8.33;;;;;;;6.80;88.37;98979.52;1672266;85;20958;-81
2022/10/28 01:05:47;;;;;;;15.08;8.43;;;;;;;6.80;88.34;98979.52;1675397;83;21423;-79
2022/10/28 01:08:17;;;;;;;17.30;7.85;;;;;;;6.80;88.97;98982.16;1671754;85;21002;-79
2022/10/28 01:10:59;;;;;;;12.88;7.33;;;;;;;6.78;88.22;98977.34;1675192;85;21081;-79
2022/10/28 01:13:46;;;;;;;11.18;7.25;;;;;;;6.79;88.10;98983.05;1670983;85;21029;-79
2022/10/28 01:16:30;;;;;;;11.22;7.30;;;;;;;6.80;87.91;98979.52;1616729;85;20994;-79
2022/10/28 01:19:36;;;;;;;12.15;7.55;;;;;;;6.79;87.47;98977.34;1667789;84;21097;-70
2022/10/28 01:22:33;;;;;;;11.60;6.78;;;;;;;6.78;87.68;98985.25;1674257;85;21263;-70
2022/10/28 01:25:20;;;;;;;10.82;6.35;;;;;;;6.78;87.44;98986.14;1669023;84;21201;-70
2022/10/28 01:28:41;;;;;;;11.50;6.35;;;;;;;6.78;87.59;98973.39;1670430;84;21066;-79
2022/10/28 01:31:33;;;;;;;10.90;6.70;;;;;;;6.76;87.51;98988.33;1665064;85;21005;-81
2022/10/28 01:34:17;;;;;;;14.07;7.05;;;;;;;6.70;87.54;98979.53;1675349;83;21080;-81
2022/10/28 01:37:16;;;;;;;13.58;6.35;;;;;;;6.70;87.50;98982.17;1671522;85;21559;-81
2022/10/28 01:39:54;;;;;;;10.85;6.30;;;;;;;6.69;87.69;98986.97;1667947;85;21487;-81
2022/10/28 01:42:41;;;;;;;14.35;6.53;;;;;;;6.68;87.66;98979.09;1669688;85;21435;-81
2022/10/28 01:45:24;;;;;;;12.88;7.17;;;;;;;6.68;87.77;98981.73;1670458;84;21038;-82
2022/10/28 01:48:15;;;;;;;11.55;6.80;;;;;;;6.66;87.69;98981.72;1670801;85;21073;-82
2022/10/28 01:51:04;;;;;;;11.30;6.62;;;;;;;6.64;87.77;98980.82;1672375;85;21034;-80
2022/10/28 01:53:37;;;;;;;9.45;6.05;;;;;;;6.64;87.99;98983.45;1668688;85;21009;-81
2022/10/28 01:56:14;;;;;;;13.53;7.10;;;;;;;6.63;87.97;98980.38;1664622;85;21026;-81
2022/10/28 01:58:46;;;;;;;11.15;6.75;;;;;;;6.65;88.22;98981.28;1665916;85;21105;-81
2022/10/28 02:01:16;;;;;;;9.35;5.78;;;;;;;6.68;88.53;98977.78;1668695;85;21041;-82
2022/10/28 02:03:48;;;;;;;13.48;7.05;;;;;;;6.72;88.26;98977.77;1666413;85;21064;-82
2022/10/28 02:06:21;;;;;;;9.58;6.40;;;;;;;6.72;88.93;98975.14;1676373;85;21045;-81
2022/10/28 02:09:20;;;;;;;10.53;6.62;;;;;;;6.74;88.28;98975.14;1672293;85;21010;-81
2022/10/28 02:12:17;;;;;;;9.90;5.45;;;;;;;6.72;87.84;98982.15;1677290;85;21447;-81
2022/10/28 02:15:27;;;;;;;9.78;6.87;;;;;;;6.69;87.70;98981.70;1669806;85;21045;-81
2022/10/28 02:18:17;;;;;;;11.55;6.08;;;;;;;6.66;87.99;98983.03;1673225;85;20997;-81
2022/10/28 02:21:03;;;;;;;13.38;6.60;;;;;;;6.58;87.45;98975.55;1671284;83;21097;-82
2022/10/28 02:23:51;;;;;;;11.40;7.17;;;;;;;6.52;87.44;98982.13;1648882;85;21529;-80
2022/10/28 02:26:23;;;;;;;12.68;6.83;;;;;;;6.48;87.71;98982.55;1668296;85;21552;-81
2022/10/28 02:29:07;;;;;;;14.00;7.28;;;;;;;6.42;87.35;98982.09;1677975;85;21105;-81
2022/10/28 02:31:51;;;;;;;13.00;7.00;;;;;;;6.37;87.88;98979.87;1660098;85;21027;-81
2022/10/28 02:34:23;;;;;;;10.95;7.03;;;;;;;6.32;87.75;98977.22;1650639;85;21049;-80
2022/10/28 02:36:53;;;;;;;11.90;7.00;;;;;;;6.28;87.47;98977.21;1651475;86;21029;-80
2022/10/28 02:39:25;;;;;;;13.38;6.67;;;;;;;6.19;87.14;98975.44;1647609;86;21066;-81
2022/10/28 02:42:06;;;;;;;10.43;7.05;;;;;;;6.15;87.53;98975.83;1653054;86;21431;-80
2022/10/28 02:44:40;;;;;;;10.32;6.45;;;;;;;6.10;86.92;98969.67;1649207;86;21549;-78
2022/10/28 02:47:19;;;;;;;12.40;7.25;;;;;;;6.01;86.75;98977.48;1647963;85;21444;-79
2022/10/28 02:49:51;;;;;;;11.97;6.58;;;;;;;5.93;86.63;98976.13;1672056;85;21037;-79
2022/10/28 02:52:21;;;;;;;12.40;6.30;;;;;;;5.86;87.05;98975.22;1667339;85;21056;-80
2022/10/28 02:54:57;;;;;;;11.80;6.90;;;;;;;5.79;86.75;98981.34;1675094;85;21076;-80
2022/10/28 02:57:32;;;;;;;10.20;6.40;;;;;;;5.74;86.98;98976.48;1674087;85;20998;-80
2022/10/28 03:00:00;;;;;;;;;;;;;;;5.68;87.27;98969.00;1673524;85;21412;-80
2022/10/28 03:02:29;;;;;;;9.83;6.15;;;;;;;5.62;86.83;98974.23;1665964;85;20149;-80
2022/10/28 03:04:55;;;;;;;12.70;7.72;;;;;;;5.55;86.78;98973.73;1676198;85;21424;-80
2022/10/28 03:07:23;;;;;;;13.68;7.60;;;;;;;5.50;87.04;98972.41;1667963;85;21496;-80
2022/10/28 03:09:50;;;;;;;12.60;7.00;;;;;;;5.47;87.06;98971.05;1669090;85;21057;-80
2022/10/28 03:12:16;;;;;;;15.00;7.60;;;;;;;5.41;86.97;98974.51;1669401;85;21040;-80
2022/10/28 03:14:45;;;;;;;12.18;7.45;;;;;;;5.38;86.92;98978.88;1670912;85;21037;-80
2022/10/28 03:17:12;;;;;;;12.30;7.47;;;;;;;5.34;87.12;98979.29;1670882;85;21009;-79
2022/10/28 03:19:38;;;;;;;11.55;7.22;;;;;;;5.32;87.11;98976.20;1667857;85;21050;-80
2022/10/28 03:22:05;;;;;;;13.88;6.95;;;;;;;5.27;87.13;98981.41;1660178;85;21101;-79
2022/10/28 03:24:31;;;;;;;13.15;7.30;;;;;;;5.23;87.12;98984.45;1662076;84;21073;-80
2022/10/28 03:26:59;;;;;;;14.28;7.33;;;;;;;5.21;87.25;98987.52;1655343;85;21045;-79
2022/10/28 03:29:26;;;;;;;12.40;7.65;;;;;;;5.20;87.41;98987.08;1654763;86;21081;-80
2022/10/28 03:31:53;;;;;;;10.18;6.75;;;;;;;5.18;87.23;98982.68;1655897;85;21467;-79
2022/10/28 03:34:20;;;;;;;12.90;7.37;;;;;;;5.15;87.35;98981.77;1653154;84;21009;-79
2022/10/28 03:36:48;;;;;;;12.33;7.35;;;;;;;5.14;87.40;98977.39;1658932;85;21105;-79
2022/10/28 03:39:15;;;;;;;12.23;6.92;;;;;;;5.12;87.42;98978.24;1657801;85;21443;-80
2022/10/28 03:41:41;;;;;;;13.25;7.12;;;;;;;5.13;87.79;98981.31;1655093;85;21030;-80
2022/10/28 03:44:07;;;;;;;16.55;7.75;;;;;;;5.12;87.56;98975.16;1661272;85;21029;-81
2022/10/28 03:46:35;;;;;;;15.53;8.60;;;;;;;5.08;87.43;98979.08;1660404;85;21100;-79
2022/10/28 03:49:02;;;;;;;13.00;7.05;;;;;;;5.05;87.70;98970.73;1660622;86;21026;-80
2022/10/28 03:51:31;;;;;;;12.10;7.50;;;;;;;5.01;87.81;98969.84;1660628;86;21452;-80
2022/10/28 03:54:00;;;;;;;13.18;7.37;;;;;;;4.98;88.09;98968.94;1659609;85;21527;-80
2022/10/28 03:56:26;;;;;;;12.82;8.10;;;;;;;4.97;88.04;98972.41;1654707;85;21050;-79
2022/10/28 03:58:53;;;;;;;12.35;7.75;;;;;;;5.00;87.87;98973.34;1662637;85;20992;-80
2022/10/28 04:01:20;;;;;;;10.82;7.47;;;;;;;5.02;87.86;98972.91;1653568;85;20998;-80
2022/10/28 04:03:46;;;;;;;14.03;6.90;;;;;;;5.05;87.65;98971.16;1659995;85;21034;-80
2022/10/28 04:06:13;;;;;;;13.80;7.62;;;;;;;5.03;87.69;98972.48;1657678;85;21038;-80
2022/10/28 04:08:43;;;;;;;11.57;7.17;;;;;;;5.06;87.89;98975.12;1657445;85;21085;-80
2022/10/28 04:11:11;;;;;;;12.05;7.00;;;;;;;5.08;87.98;98981.70;1653776;85;21038;-80
2022/10/28 04:13:38;;;;;;;11.97;7.20;;;;;;;5.13;88.13;98983.94;1659456;85;21042;-80
2022/10/28 04:16:06;;;;;;;11.45;6.80;;;;;;;5.21;88.40;98977.00;1658215;85;21030;-80
2022/10/28 04:18:34;;;;;;;12.65;6.25;;;;;;;5.26;88.16;98982.28;1659949;85;21082;-80
2022/10/28 04:21:01;;;;;;;10.82;6.30;;;;;;;5.28;88.19;98972.69;1672157;85;21081;-79
2022/10/28 04:23:30;;;;;;;9.95;6.20;;;;;;;5.32;88.33;98977.09;1666103;85;21025;-79
2022/10/28 04:25:58;;;;;;;10.48;6.08;;;;;;;5.35;88.10;98971.84;1671537;85;21506;-79
2022/10/28 04:28:24;;;;;;;9.15;6.00;;;;;;;5.32;87.61;98977.52;1672993;85;21442;-79
2022/10/28 04:30:51;;;;;;;8.73;6.10;;;;;;;5.26;87.68;98977.03;1671948;85;21088;-79
2022/10/28 04:33:17;;;;;;;13.68;6.92;;;;;;;5.25;87.72;98981.42;1655587;85;21022;-79
2022/10/28 04:35:45;;;;;;;10.13;6.47;;;;;;;5.29;88.26;98987.58;1672996;83;21024;-79
2022/10/28 04:38:14;;;;;;;12.33;6.83;;;;;;;5.33;88.34;98981.91;1672298;85;21479;-79
2022/10/28 04:40:41;;;;;;;10.60;6.80;;;;;;;5.32;88.02;98979.73;1668264;85;21025;-81
2022/10/28 04:43:10;;;;;;;11.03;6.80;;;;;;;5.31;88.07;98974.00;1671825;85;21021;-81
2022/10/28 04:45:37;;;;;;;10.63;6.42;;;;;;;5.29;87.88;98973.98;1673504;85;21061;-81
2022/10/28 04:48:04;;;;;;;12.18;6.60;;;;;;;5.27;87.95;98970.47;1672375;85;21098;-81
2022/10/28 04:50:31;;;;;;;12.18;6.75;;;;;;;5.24;87.60;98969.12;1669890;85;21053;-81
2022/10/28 04:53:00;;;;;;;11.88;6.97;;;;;;;5.19;87.64;98973.92;1672692;85;21033;-81
2022/10/28 04:55:28;;;;;;;12.13;7.53;;;;;;;5.22;88.06;98968.67;1673856;85;21077;-79
2022/10/28 04:57:59;;;;;;;12.55;7.22;;;;;;;5.17;87.39;98969.06;1676634;85;20982;-78
2022/10/28 05:00:28;;;;;;;9.55;6.78;;;;;;;5.07;87.20;98966.36;1674762;85;21044;-79
2022/10/28 05:02:55;;;;;;;11.12;6.97;;;;;;;4.98;87.14;98964.55;1668793;85;21044;-79
2022/10/28 05:05:22;;;;;;;10.32;6.78;;;;;;;4.94;87.22;98978.97;1672886;85;20981;-78
2022/10/28 05:07:52;;;;;;;15.80;7.10;;;;;;;4.88;87.54;98974.11;1649244;85;21002;-78
2022/10/28 05:10:19;;;;;;;14.23;8.00;;;;;;;4.89;87.73;98978.48;1662010;85;21412;-80
2022/10/28 05:12:46;;;;;;;12.85;7.33;;;;;;;4.85;87.34;98981.05;1652167;85;21061;-80
2022/10/28 05:15:14;;;;;;;12.35;7.33;;;;;;;4.80;87.29;98982.75;1675832;85;21435;-80
2022/10/28 05:17:44;;;;;;;13.60;7.37;;;;;;;4.76;87.29;98980.54;1648182;85;20982;-80
2022/10/28 05:20:13;;;;;;;14.03;8.93;;;;;;;4.72;87.45;98977.01;1660026;85;21003;-80
2022/10/28 05:22:49;;;;;;;11.45;7.75;;;;;;;4.70;87.51;98980.48;1656510;85;20995;-80
2022/10/28 05:25:19;;;;;;;15.48;8.43;;;;;;;4.66;87.42;98983.94;1650172;86;21018;-80
2022/10/28 05:27:46;;;;;;;16.30;8.03;;;;;;;4.66;87.77;98989.19;1653446;86;21428;-80
2022/10/28 05:30:15;;;;;;;17.27;8.45;;;;;;;4.65;87.71;98987.44;1648693;85;21038;-80
2022/10/28 05:32:43;;;;;;;16.50;8.80;;;;;;;4.65;87.71;98987.44;1646072;85;20998;-80
2022/10/28 05:35:11;;;;;;;18.05;8.65;;;;;;;4.62;87.70;98989.15;1647907;85;21026;-80
2022/10/28 05:37:38;;;;;;;12.98;7.95;;;;;;;4.62;87.71;98994.85;1654026;86;21026;-80
2022/10/28 05:40:07;;;;;;;14.30;8.53;;;;;;;4.61;87.68;98997.89;1653131;86;21070;-80
2022/10/28 05:42:42;;;;;;;16.85;9.13;;;;;;;4.61;88.09;98995.27;1656181;86;20983;-81
2022/10/28 05:45:10;;;;;;;18.73;9.53;;;;;;;4.64;88.09;98997.50;1647313;85;21037;-81
2022/10/28 05:47:44;;;;;;;17.67;8.63;;;;;;;4.65;87.94;98994.86;1657292;85;21542;-81
2022/10/28 05:50:13;;;;;;;17.52;8.85;;;;;;;4.67;88.23;99000.14;1657884;85;21036;-81
2022/10/28 05:52:48;;;;;;;19.42;9.53;;;;;;;4.69;88.67;99006.30;1657019;86;21392;-81
2022/10/28 05:55:18;;;;;;;17.32;9.40;;;;;;;4.69;88.35;99012.42;1654271;86;21037;-80
2022/10/28 05:57:46;;;;;;;17.82;10.43;;;;;;;4.71;88.31;99012.02;1653655;86;20978;-81
2022/10/28 06:00:15;;;;;;;19.55;11.12;;;;;;;4.75;88.91;99008.56;1648866;85;21500;-81
2022/10/28 06:02:42;;;;;;;21.25;10.38;;;;;;;4.77;88.94;99012.95;1647110;85;21034;-79
2022/10/28 06:05:10;;;;;;;16.35;10.72;;;;;;;4.79;88.75;99013.83;1656312;86;21006;-79
2022/10/28 06:07:38;;;;;;;19.15;10.82;;;;;;;4.83;89.05;99014.31;1649410;86;20994;-79
2022/10/28 06:10:08;;;;;;;17.52;10.63;;;;;;;4.85;89.04;99017.41;1655920;85;21303;-80
2022/10/28 06:12:36;;;;;;;19.48;11.35;;;;;;;4.87;88.71;99016.11;1600470;87;21061;-80
2022/10/28 06:15:04;;;;;;;18.98;11.35;;;;;;;4.92;88.99;99017.45;1653121;85;21074;-81
2022/10/28 06:17:30;;;;;;;18.32;10.93;;;;;;;4.98;88.96;99015.77;1647422;86;21115;-82
2022/10/28 06:19:57;;;;;;;20.45;10.50;;;;;;;5.04;88.95;99018.91;1651061;85;21041;-81
2022/10/28 06:22:24;;;;;;;22.32;11.43;;;;;;;5.09;88.88;99017.62;1671225;85;20989;-81
2022/10/28 06:24:50;;;;;;;17.80;10.78;;;;;;;5.15;88.87;99020.33;1671586;84;21003;-81
2022/10/28 06:27:18;;;;;;;22.80;11.03;;;;;;;5.19;88.90;99015.52;1651558;85;22116;-80
2022/10/28 06:29:45;;;;;;;20.97;10.20;;;;;;;5.24;88.85;99016.44;1670253;84;21049;-83
2022/10/28 06:32:13;;;;;;;25.97;11.60;;;;;;;5.29;88.99;99022.61;1672452;84;21037;-81
2022/10/28 06:34:40;;;;;;;21.27;11.78;;;;;;;5.35;88.90;99023.56;1669896;83;21061;-82
2022/10/28 06:37:06;;;;;;;23.47;11.50;;;;;;;5.39;88.71;99025.31;1674442;84;21129;-82
2022/10/28 06:39:33;;;;;;;53.05;26.33;;;;;;;5.46;88.91;99031.09;1669998;84;21025;-80
2022/10/28 06:42:01;;;;;;;21.12;11.25;;;;;;;5.53;88.72;99026.31;1670800;84;21037;-81
2022/10/28 06:44:27;;;;;;;19.12;11.57;;;;;;;5.59;88.85;99029.42;1672219;84;21001;-81
2022/10/28 06:46:54;;;;;;;20.57;12.37;;;;;;;5.66;88.54;99027.73;1669820;84;20978;-81
2022/10/28 06:49:23;;;;;;;22.30;12.40;;;;;;;5.74;88.70;99026.46;1668789;84;21017;-82
2022/10/28 06:51:50;;;;;;;18.07;10.35;;;;;;;5.84;88.54;99030.91;1669329;85;21050;-80
2022/10/28 06:54:18;;;;;;;15.65;10.10;;;;;;;5.94;88.72;99036.67;1675738;85;21081;-80
2022/10/28 06:56:46;;;;;;;18.27;9.10;;;;;;;6.07;88.82;99036.33;1669099;84;21653;-81
2022/10/28 06:59:13;;;;;;;20.20;10.32;;;;;;;6.19;88.91;99037.29;1673558;85;21444;-80
2022/10/28 07:01:40;;;;;;;25.43;12.73;;;;;;;6.33;89.10;99039.98;1671923;85;21057;-81
2022/10/28 07:04:14;;;;;;;27.82;12.98;;;;;;;6.46;89.08;99038.27;1675009;85;21009;-79
2022/10/28 07:06:41;;;;;;;28.67;13.90;;;;;;;6.59;89.26;99026.02;1672432;85;21454;-80
2022/10/28 07:09:14;;;;;;;28.05;13.60;;;;;;;6.72;89.06;99038.79;1670905;85;21093;-80
2022/10/28 07:11:44;;;;;;;21.93;12.37;;;;;;;6.85;88.98;99027.88;1670343;85;20938;-80
2022/10/28 07:14:11;;;;;;;25.35;12.47;;;;;;;6.98;88.89;99030.09;1673242;85;22345;-80
2022/10/28 07:16:37;;;;;;;29.50;14.87;;;;;;;7.08;88.80;99021.74;1665684;85;21028;-80
2022/10/28 07:19:04;;;;;;;23.20;11.83;;;;;;;7.20;88.65;99025.72;1668884;85;21017;-80
2022/10/28 07:21:30;;;;;;;19.23;9.93;;;;;;;7.32;88.69;99023.96;1661607;85;20990;-81
2022/10/28 07:23:57;;;;;;;18.00;10.05;;;;;;;7.43;88.50;99025.29;1654613;85;21030;-81
2022/10/28 07:26:25;;;;;;;17.52;10.65;;;;;;;7.52;88.51;99022.19;1655740;85;20994;-81
2022/10/28 07:28:53;;;;;;;20.40;10.03;;;;;;;7.63;88.19;99021.30;1657666;85;21568;-78
2022/10/28 07:31:21;;;;;;;19.40;9.58;;;;;;;7.72;87.95;99023.08;1650896;84;21129;-81
2022/10/28 07:33:52;;;;;;;17.98;10.28;;;;;;;7.78;87.56;99019.95;1652977;85;21033;-79
2022/10/28 07:36:21;;;;;;;23.80;12.18;;;;;;;7.85;87.49;99017.33;1636637;85;23240;-80
2022/10/28 07:38:53;;;;;;;24.98;15.43;;;;;;;7.95;87.46;99016.42;1653336;85;21033;-80
2022/10/28 07:41:23;;;;;;;21.50;12.10;;;;;;;8.04;87.28;99016.83;1657415;85;20999;-81
2022/10/28 07:43:50;;;;;;;18.65;10.30;;;;;;;8.11;86.96;99010.67;1657079;85;21109;-80
2022/10/28 07:46:18;;;;;;;19.23;10.82;;;;;;;8.21;87.00;99016.78;1661261;85;21034;-81
2022/10/28 07:48:45;;;;;;;17.50;10.68;;;;;;;8.28;86.55;99009.72;1654067;85;21102;-81
2022/10/28 07:51:15;;;;;;;21.90;11.95;;;;;;;8.37;86.46;99006.15;1654539;85;21066;-81
2022/10/28 07:53:43;;;;;;;20.82;10.30;;;;;;;8.45;86.38;99007.00;1659530;85;21058;-80
2022/10/28 07:56:12;;;;;;;18.92;10.23;;;;;;;8.50;86.17;98999.94;1655070;85;20997;-81
2022/10/28 07:58:41;;;;;;;17.73;9.65;;;;;;;8.58;85.94;99001.25;1662749;86;21006;-81
2022/10/28 08:01:11;;;;;;;17.37;9.78;;;;;;;8.65;85.91;98996.81;1657596;85;21378;-81
2022/10/28 08:03:39;;;;;;;14.03;8.43;;;;;;;8.71;85.53;98996.77;1654384;85;21062;-80
2022/10/28 08:06:10;;;;;;;15.90;8.38;;;;;;;8.77;85.14;98999.39;1654816;85;21066;-81
2022/10/28 08:08:40;;;;;;;14.58;8.10;;;;;;;8.85;85.05;98994.92;1653151;85;21098;-80
2022/10/28 08:11:18;;;;;;;12.23;7.50;;;;;;;8.94;84.90;98992.68;1661493;85;20958;-78
2022/10/28 08:13:46;;;;;;;11.70;7.37;;;;;;;9.00;84.40;98995.70;1646431;85;21007;-78
2022/10/28 08:16:12;;;;;;;12.60;6.78;;;;;;;9.08;84.40;98999.19;1665941;85;20995;-81
2022/10/28 08:18:41;;;;;;;11.78;6.70;;;;;;;9.16;84.28;98996.48;1673217;84;21483;-80
2022/10/28 08:21:12;;;;;;;11.83;6.65;;;;;;;9.23;83.94;98997.31;1671361;84;21396;-79
2022/10/28 08:23:45;;;;;;;11.70;6.53;;;;;;;9.30;83.15;98995.03;1671277;84;21010;-78
2022/10/28 08:26:10;;;;;;;14.23;7.37;;;;;;;9.43;83.83;98991.83;1656239;85;21062;-79
2022/10/28 08:28:39;;;;;;;9.43;5.67;;;;;;;9.56;83.64;98992.63;1656667;85;21043;-79
2022/10/28 08:31:07;;;;;;;10.48;4.75;;;;;;;9.69;83.08;98996.47;1623232;88;21038;-80
2022/10/28 08:33:36;;;;;;;8.53;4.87;;;;;;;9.80;82.66;98994.58;1666122;85;20982;-80
2022/10/28 08:36:04;;;;;;;11.65;6.62;;;;;;;9.89;82.46;98987.86;1659784;84;21010;-80
2022/10/28 08:38:33;;;;;;;11.25;6.47;;;;;;;9.97;82.24;98990.89;1652066;85;20994;-80
2022/10/28 08:41:41;;;;;;;14.38;7.15;;;;;;;10.03;81.75;98997.44;1657372;84;21065;-82
2022/10/28 08:44:32;;;;;;;11.97;7.65;;;;;;;10.09;81.82;98988.09;1649080;84;21089;-80
2022/10/28 08:47:28;;;;;;;17.42;9.83;;;;;;;10.17;81.74;98996.83;1655005;84;21030;-83
2022/10/28 08:50:06;;;;;;;19.37;10.30;;;;;;;10.25;81.22;98984.81;1661648;84;21056;-79
2022/10/28 08:52:51;;;;;;;18.67;11.35;;;;;;;10.39;80.51;98988.60;1657438;84;20991;-80
2022/10/28 08:55:32;;;;;;;21.55;11.15;;;;;;;10.52;80.91;98987.17;1663423;84;21049;-80
2022/10/28 08:58:24;;;;;;;20.88;13.45;;;;;;;10.63;80.79;98991.86;1663098;84;21073;-81
2022/10/28 09:00:55;;;;;;;30.65;14.87;;;;;;;10.74;80.52;98988.18;1659487;84;21018;-81
2022/10/28 09:03:26;;;;;;;21.10;14.00;;;;;;;10.82;79.88;98981.89;1657430;84;21094;-80
2022/10/28 09:06:00;;;;;;;26.35;15.20;;;;;;;10.91;79.73;98982.63;1665968;84;21015;-80
2022/10/28 09:08:31;;;;;;;23.98;14.45;;;;;;;11.03;79.57;98982.90;1658428;84;21065;-79
2022/10/28 09:11:36;;;;;;;22.98;12.03;;;;;;;11.16;79.60;98986.23;1653963;84;21014;-81
2022/10/28 09:14:25;;;;;;;23.10;12.95;;;;;;;11.23;79.06;98977.28;1612771;87;21033;-81
2022/10/28 09:17:19;;;;;;;20.08;12.63;;;;;;;11.34;78.36;98979.30;1621892;87;21007;-81
2022/10/28 09:19:52;;;;;;;20.32;11.78;;;;;;;11.42;78.21;98976.98;1662866;85;21026;-82
2022/10/28 09:22:42;;;;;;;15.85;10.50;;;;;;;11.59;78.31;98976.69;1651125;84;21059;-79
2022/10/28 09:25:48;;;;;;;15.85;10.45;;;;;;;11.73;77.82;98979.97;1658204;84;21026;-80
2022/10/28 09:28:38;;;;;;;14.80;9.45;;;;;;;11.88;77.98;98977.46;1640900;86;21439;-81
2022/10/28 09:31:27;;;;;;;17.70;10.18;;;;;;;12.04;77.53;98979.81;1641046;86;21060;-81
2022/10/28 09:34:32;;;;;;;17.92;10.48;;;;;;;12.18;77.09;98970.73;1663627;84;20990;-78
2022/10/28 09:37:13;;;;;;;17.02;10.70;;;;;;;12.32;77.34;98976.64;1637422;85;20998;-77
2022/10/28 09:39:50;;;;;;;13.00;9.45;;;;;;;12.45;77.18;98973.27;1637103;86;21456;-81
2022/10/28 09:42:25;;;;;;;15.13;10.03;;;;;;;12.58;76.61;98971.69;1645293;85;21070;-80
2022/10/28 09:45:00;;;;;;;15.80;10.45;;;;;;;12.71;75.96;98974.47;1677361;83;21009;-81
2022/10/28 09:47:38;;;;;;;16.35;10.85;;;;;;;12.84;75.82;98969.77;1654246;84;21425;-81
2022/10/28 09:50:12;;;;;;;17.20;10.40;;;;;;;12.98;75.41;98965.88;1640967;86;21448;-81
2022/10/28 09:52:44;;;;;;;21.25;10.58;;;;;;;13.12;74.62;98966.91;1640530;86;21014;-81
2022/10/28 09:55:22;;;;;;;15.10;10.05;;;;;;;13.26;74.88;98970.55;1649156;85;21014;-82
2022/10/28 09:57:49;;;;;;;16.93;10.35;;;;;;;13.33;74.18;98965.03;1645292;85;21097;-79
2022/10/28 10:00:17;;;;;;;13.95;8.98;;;;;;;13.39;74.22;98960.45;1644827;84;20983;-81
2022/10/28 10:02:44;;;;;;;13.95;10.45;;;;;;;13.44;73.84;98959.44;1659904;85;21355;-80
2022/10/28 10:05:16;;;;;;;13.18;10.13;;;;;;;13.49;73.47;98961.14;1659103;85;21009;-80
2022/10/28 10:07:56;;;;;;;13.48;9.45;;;;;;;13.53;71.85;98954.35;1675145;85;21029;-79
2022/10/28 10:10:55;;;;;;;12.50;8.98;;;;;;;13.60;72.31;98951.08;1660014;85;21018;-83
2022/10/28 10:13:30;;;;;;;15.23;9.48;;;;;;;13.71;71.97;98952.13;1660031;85;21030;-80
2022/10/28 10:16:20;;;;;;;12.60;9.20;;;;;;;13.85;71.76;98947.73;1660819;85;21135;-81
2022/10/28 10:18:52;;;;;;;13.75;9.28;;;;;;;13.97;70.81;98951.86;1681022;85;22628;-81
2022/10/28 10:21:45;;;;;;;16.70;8.58;;;;;;;14.11;71.27;98946.12;1687125;85;21467;-82
2022/10/28 10:24:32;;;;;;;11.22;8.35;;;;;;;14.25;70.29;98945.27;1663126;85;21028;-82
2022/10/28 10:27:12;;;;;;;12.68;9.03;;;;;;;14.38;70.25;98940.44;1649986;85;21580;-82
2022/10/28 10:29:46;;;;;;;12.63;7.40;;;;;;;14.70;70.37;98935.03;1675638;85;21448;-81
2022/10/28 10:32:17;;;;;;;11.88;7.92;;;;;;;15.27;68.19;98933.69;1684121;84;21447;-81
2022/10/28 10:35:02;;;;;;;13.50;8.25;;;;;;;15.77;66.06;98932.43;1685121;85;21352;-81
2022/10/28 10:37:29;;;;;;;;;;;;;;;16.62;66.16;98924.42;1682531;85;21015;-80
2022/10/28 10:40:19;;;;;;;10.68;7.55;;;;;;;17.56;64.07;98922.83;1687421;85;20141;-81
2022/10/28 10:42:46;;;;;;;13.65;8.70;;;;;;;18.43;62.06;98918.09;1687412;85;21022;-82
2022/10/28 10:45:26;;;;;;;14.78;8.38;;;;;;;19.35;59.82;98916.39;1687620;85;21404;-82
2022/10/28 10:48:14;;;;;;;12.90;8.25;;;;;;;20.21;60.50;98917.34;1679590;85;21436;-81
2022/10/28 10:50:45;;;;;;;12.10;8.20;;;;;;;21.32;58.44;98909.33;1687256;85;21400;-82
2022/10/28 10:53:32;;;;;;;15.05;8.70;;;;;;;22.18;53.62;98898.31;1668108;85;21038;-81
2022/10/28 10:56:07;;;;;;;12.95;8.58;;;;;;;22.86;53.92;98893.57;1679465;85;21699;-82
2022/10/28 10:58:51;;;;;;;14.83;8.78;;;;;;;23.88;52.83;98895.78;1671202;85;20950;-80
2022/10/28 11:01:24;;;;;;;12.10;8.45;;;;;;;24.88;49.78;98890.93;1687376;85;20998;-81
2022/10/28 11:03:53;;;;;;;;;;;;;;;25.47;47.25;98884.25;1689817;85;21009;-81
2022/10/28 11:06:30;;;;;;;9.75;8.00;;;;;;;26.16;46.87;98874.40;1681275;84;20123;-80
2022/10/28 11:09:03;;;;;;;10.58;7.50;;;;;;;26.53;43.62;98884.16;1661282;84;21077;-71
2022/10/28 11:11:38;;;;;;;12.30;7.42;;;;;;;26.95;41.84;98876.16;1661406;85;21504;-71
2022/10/28 11:14:13;;;;;;;10.93;7.03;;;;;;;27.22;42.17;98872.59;1641383;85;20978;-71
2022/10/28 11:16:51;;;;;;;10.70;6.62;;;;;;;27.56;36.91;98871.05;1640935;86;21014;-71
2022/10/28 11:19:30;;;;;;;19.48;14.83;;;;;;;27.88;37.42;98867.42;1640847;86;21074;-71
2022/10/28 11:22:39;;;;;;;9.03;6.72;;;;;;;27.77;38.86;98860.70;1643835;85;21114;-72
2022/10/28 11:25:40;;;;;;;10.53;6.58;;;;;;;27.90;39.41;98859.97;1649378;85;21022;-71
2022/10/28 11:28:57;;;;;;;9.25;6.53;;;;;;;28.36;36.93;98861.48;1663093;84;21059;-72
2022/10/28 11:31:46;;;;;;;11.63;6.62;;;;;;;28.20;36.66;98860.11;1657509;85;20978;-71
2022/10/28 11:34:44;;;;;;;9.75;6.60;;;;;;;28.52;35.55;98861.80;1657517;85;21442;-71
2022/10/28 11:37:24;;;;;;;8.73;6.33;;;;;;;28.65;33.35;98859.34;1663063;84;21419;-71
2022/10/28 11:40:19;;;;;;;9.63;7.20;;;;;;;28.66;34.23;98855.60;1657320;85;21002;-71
2022/10/28 11:43:22;;;;;;;7.30;5.80;;;;;;;27.86;34.03;98854.42;1674267;84;21006;-71
2022/10/28 11:46:37;;;;;;;8.68;6.28;;;;;;;27.00;35.22;98856.75;1679180;84;21423;-72
2022/10/28 11:49:28;;;;;;;13.48;6.87;;;;;;;27.09;36.02;98852.38;1673192;84;21050;-71
2022/10/28 11:52:03;;;;;;;7.90;6.50;;;;;;;26.79;36.49;98848.50;1672681;84;21034;-72
2022/10/28 11:54:52;;;;;;;11.95;7.45;;;;;;;26.65;35.92;98845.07;1649215;86;21011;-71
2022/10/28 11:57:47;;;;;;;7.35;6.33;;;;;;;26.41;37.20;98836.59;1635376;86;21006;-71
2022/10/28 12:00:46;;;;;;;12.30;7.12;;;;;;;26.04;38.15;98840.45;1635617;86;21022;-70
2022/10/28 12:03:38;;;;;;;9.63;6.72;;;;;;;26.05;37.62;98840.82;1661730;85;21439;-71
2022/10/28 12:06:13;;;;;;;10.25;6.78;;;;;;;26.28;37.12;98844.05;1666558;85;21009;-71
2022/10/28 12:09:05;;;;;;;11.10;7.05;;;;;;;26.39;37.43;98826.84;1657251;85;21025;-71